Terminal Aerodrome Forecast
Issued by NWS

Home | Current Version | Previous Version | Text Only | Print | Product List | Glossary On
Versions: 1 2 3 4 5 6 7 8 9 10 11 12 13 14 15 16 17 18 19 20 21
000
FTUS46 KSEW 181748 CCA
TAFHQM
TAF COR
KHQM 181748Z 1818/1918 21010KT 1SM BR BKN003 BKN010 OVC015
      TEMPO 1818/1822 P6SM NSW BKN012 OVC019
     FM182200 27012KT P6SM SCT030 BKN045
     FM190300 28006KT P6SM OVC007
     FM191200 27004KT 5SM BR OVC004=

USA.gov is the U.S. government's official web portal to all federal, state and local government web resources and services.